Terminal Aerodrome Forecast
Issued by NWS Cleveland, OH

Home | Current Version | Previous Version | Graphics & Text | Print | Product List | Glossary On
Versions: 1 2 3 4 5 6 7 8 9 10 11 12 13 14 15 16 17
771
FTUS41 KCLE 221725
TAFMFD
TAF
KMFD 221725Z 2218/2318 23014G20KT P6SM SCT035
     FM222300 24008KT P6SM SCT250
     FM231200 18008KT P6SM SCT120=

USA.gov is the U.S. government's official web portal to all federal, state and local government web resources and services.